sensor_id;sensor_type;location;lat;lon;timestamp;pressure;altitude;pressure_sealevel;temperature;humidity
69184;BME280;56291;53.960;27.550;2023-03-21T05:11:28;98474.63;;;3.61;68.12
69184;BME280;56291;53.960;27.550;2023-03-21T05:14:00;98483.13;;;3.63;67.97
69184;BME280;56291;53.960;27.550;2023-03-21T05:16:26;98485.63;;;3.65;68.16
69184;BME280;56291;53.960;27.550;2023-03-21T05:18:56;98486.47;;;3.65;68.08
69184;BME280;56291;53.960;27.550;2023-03-21T05:21:25;98490.63;;;3.68;67.68
69184;BME280;56291;53.960;27.550;2023-03-21T05:23:54;98493.91;;;3.70;68.29
69184;BME280;56291;53.960;27.550;2023-03-21T05:26:23;98491.81;;;3.75;68.06
69184;BME280;56291;53.960;27.550;2023-03-21T05:28:50;98495.25;;;3.75;67.98
69184;BME280;56291;53.960;27.550;2023-03-21T05:31:17;98494.19;;;3.78;68.66
69184;BME280;56291;53.960;27.550;2023-03-21T05:33:44;98494.91;;;3.80;69.29
69184;BME280;56291;53.960;27.550;2023-03-21T05:36:11;98503.44;;;3.82;68.38
69184;BME280;56291;53.960;27.550;2023-03-21T05:38:38;98502.38;;;3.85;67.59
69184;BME280;56291;53.960;27.550;2023-03-21T05:41:07;98509.13;;;3.87;67.89
69184;BME280;56291;53.960;27.550;2023-03-21T05:43:34;98513.25;;;3.90;68.53
69184;BME280;56291;53.960;27.550;2023-03-21T05:46:00;98514.81;;;3.92;68.14
69184;BME280;56291;53.960;27.550;2023-03-21T05:48:26;98511.28;;;3.93;68.39
69184;BME280;56291;53.960;27.550;2023-03-21T05:50:53;98517.22;;;3.96;68.44
69184;BME280;56291;53.960;27.550;2023-03-21T05:53:19;98510.22;;;3.96;67.72
69184;BME280;56291;53.960;27.550;2023-03-21T05:55:45;98516.97;;;3.99;68.52
69184;BME280;56291;53.960;27.550;2023-03-21T05:58:12;98510.81;;;4.00;67.42
69184;BME280;56291;53.960;27.550;2023-03-21T06:00:41;98514.13;;;4.02;67.70
69184;BME280;56291;53.960;27.550;2023-03-21T06:03:07;98523.50;;;4.04;68.21
69184;BME280;56291;53.960;27.550;2023-03-21T06:05:33;98524.19;;;4.06;68.44
69184;BME280;56291;53.960;27.550;2023-03-21T06:07:59;98524.09;;;4.08;67.83
69184;BME280;56291;53.960;27.550;2023-03-21T06:10:46;98526.38;;;4.13;68.08
69184;BME280;56291;53.960;27.550;2023-03-21T06:13:18;98528.84;;;4.14;68.38
69184;BME280;56291;53.960;27.550;2023-03-21T06:15:44;98532.16;;;4.16;67.83
69184;BME280;56291;53.960;27.550;2023-03-21T06:18:10;98533.69;;;4.19;67.67
69184;BME280;56291;53.960;27.550;2023-03-21T06:20:39;98530.16;;;4.20;67.75
69184;BME280;56291;53.960;27.550;2023-03-21T06:23:05;98534.31;;;4.22;68.32
69184;BME280;56291;53.960;27.550;2023-03-21T06:25:34;98522.81;;;4.25;67.77
69184;BME280;56291;53.960;27.550;2023-03-21T06:30:55;98532.78;;;4.31;68.40
69184;BME280;56291;53.960;27.550;2023-03-21T06:33:21;98539.31;;;4.37;67.95
69184;BME280;56291;53.960;27.550;2023-03-21T06:35:54;98536.59;;;4.38;68.77
69184;BME280;56291;53.960;27.550;2023-03-21T06:38:21;98541.31;;;4.44;68.41
69184;BME280;56291;53.960;27.550;2023-03-21T06:40:50;98537.66;;;4.47;68.55
69184;BME280;56291;53.960;27.550;2023-03-21T06:43:17;98535.91;;;4.48;68.24
69184;BME280;56291;53.960;27.550;2023-03-21T06:45:46;98542.41;;;4.53;68.79
69184;BME280;56291;53.960;27.550;2023-03-21T06:48:12;98543.94;;;4.56;68.16
69184;BME280;56291;53.960;27.550;2023-03-21T06:50:38;98544.66;;;4.58;68.14
69184;BME280;56291;53.960;27.550;2023-03-21T06:53:05;98542.75;;;4.60;67.61
69184;BME280;56291;53.960;27.550;2023-03-21T06:55:31;98550.25;;;4.65;68.29
69184;BME280;56291;53.960;27.550;2023-03-21T06:57:57;98545.72;;;4.67;68.91
69184;BME280;56291;53.960;27.550;2023-03-21T07:00:24;98554.03;;;4.72;68.57
69184;BME280;56291;53.960;27.550;2023-03-21T07:02:50;98552.84;;;4.76;68.78
69184;BME280;56291;53.960;27.550;2023-03-21T07:05:19;98561.03;;;4.83;68.00
69184;BME280;56291;53.960;27.550;2023-03-21T07:07:45;98548.56;;;4.86;68.80
69184;BME280;56291;53.960;27.550;2023-03-21T07:10:12;98540.50;;;4.89;69.00
69184;BME280;56291;53.960;27.550;2023-03-21T07:12:38;98550.50;;;4.95;69.26
69184;BME280;56291;53.960;27.550;2023-03-21T07:15:05;98549.31;;;5.00;69.82
69184;BME280;56291;53.960;27.550;2023-03-21T07:17:32;98537.56;;;5.05;69.32
69184;BME280;56291;53.960;27.550;2023-03-21T07:19:59;98541.47;;;5.11;69.56
69184;BME280;56291;53.960;27.550;2023-03-21T07:22:25;98534.94;;;5.17;69.60
69184;BME280;56291;53.960;27.550;2023-03-21T07:24:51;98534.56;;;5.21;69.85
69184;BME280;56291;53.960;27.550;2023-03-21T07:27:18;98535.88;;;5.27;69.90
69184;BME280;56291;53.960;27.550;2023-03-21T07:29:44;98544.97;;;5.32;69.65
69184;BME280;56291;53.960;27.550;2023-03-21T07:32:12;98549.47;;;5.42;70.36
69184;BME280;56291;53.960;27.550;2023-03-21T07:34:38;98546.97;;;5.52;70.78
69184;BME280;56291;53.960;27.550;2023-03-21T07:37:04;98545.91;;;5.54;69.62
69184;BME280;56291;53.960;27.550;2023-03-21T07:39:32;98545.91;;;5.54;70.62
69184;BME280;56291;53.960;27.550;2023-03-21T07:42:00;98552.63;;;5.57;69.38
69184;BME280;56291;53.960;27.550;2023-03-21T07:44:26;98555.13;;;5.58;70.13
69184;BME280;56291;53.960;27.550;2023-03-21T07:46:54;98553.91;;;5.62;70.35
69184;BME280;56291;53.960;27.550;2023-03-21T07:49:21;98547.63;;;5.65;69.58
69184;BME280;56291;53.960;27.550;2023-03-21T07:51:47;98552.94;;;5.75;70.66
69184;BME280;56291;53.960;27.550;2023-03-21T07:54:13;98555.28;;;5.78;70.70
69184;BME280;56291;53.960;27.550;2023-03-21T07:56:39;98552.19;;;5.84;70.88
69184;BME280;56291;53.960;27.550;2023-03-21T07:59:06;98554.41;;;5.89;69.79
69184;BME280;56291;53.960;27.550;2023-03-21T08:01:33;98552.88;;;5.97;70.05
69184;BME280;56291;53.960;27.550;2023-03-21T08:03:59;98553.31;;;6.03;70.31
69184;BME280;56291;53.960;27.550;2023-03-21T08:06:27;98567.78;;;6.07;70.70
69184;BME280;56291;53.960;27.550;2023-03-21T08:09:02;98571.00;;;6.10;70.53
69184;BME280;56291;53.960;27.550;2023-03-21T08:11:29;98575.69;;;6.16;70.70
69184;BME280;56291;53.960;27.550;2023-03-21T08:13:57;98579.00;;;6.18;70.64
69184;BME280;56291;53.960;27.550;2023-03-21T08:16:23;98575.91;;;6.25;69.92
69184;BME280;56291;53.960;27.550;2023-03-21T08:18:49;98568.63;;;6.28;69.65
69184;BME280;56291;53.960;27.550;2023-03-21T08:21:15;98574.91;;;6.37;68.83
69184;BME280;56291;53.960;27.550;2023-03-21T08:23:42;98580.94;;;6.38;69.18
69184;BME280;56291;53.960;27.550;2023-03-21T08:26:08;98583.75;;;6.46;69.01
69184;BME280;56291;53.960;27.550;2023-03-21T08:28:35;98589.66;;;6.48;68.29
69184;BME280;56291;53.960;27.550;2023-03-21T08:31:07;98583.47;;;6.49;68.76
69184;BME280;56291;53.960;27.550;2023-03-21T08:33:33;98586.56;;;6.54;69.29
69184;BME280;56291;53.960;27.550;2023-03-21T08:36:00;98589.03;;;6.56;69.39
69184;BME280;56291;53.960;27.550;2023-03-21T08:38:27;98584.38;;;6.59;69.26
69184;BME280;56291;53.960;27.550;2023-03-21T08:40:55;98591.25;;;6.60;69.72
69184;BME280;56291;53.960;27.550;2023-03-21T08:43:22;98592.53;;;6.66;69.05
69184;BME280;56291;53.960;27.550;2023-03-21T08:45:51;98594.06;;;6.68;69.05
69184;BME280;56291;53.960;27.550;2023-03-21T08:48:18;98590.34;;;6.71;69.19
69184;BME280;56291;53.960;27.550;2023-03-21T08:50:44;98591.16;;;6.72;69.61
69184;BME280;56291;53.960;27.550;2023-03-21T08:53:10;98597.38;;;6.71;68.53
69184;BME280;56291;53.960;27.550;2023-03-21T08:55:36;98594.50;;;6.74;69.16
69184;BME280;56291;53.960;27.550;2023-03-21T08:58:03;98598.25;;;6.81;68.34
69184;BME280;56291;53.960;27.550;2023-03-21T09:00:29;98598.00;;;6.84;69.18
69184;BME280;56291;53.960;27.550;2023-03-21T09:02:55;98605.44;;;6.89;68.71
69184;BME280;56291;53.960;27.550;2023-03-21T09:05:24;98609.03;;;6.88;69.00
69184;BME280;56291;53.960;27.550;2023-03-21T09:07:51;98613.22;;;7.00;68.63
69184;BME280;56291;53.960;27.550;2023-03-21T09:10:20;98610.75;;;7.08;67.77
69184;BME280;56291;53.960;27.550;2023-03-21T09:12:47;98612.28;;;7.11;68.31
69184;BME280;56291;53.960;27.550;2023-03-21T09:15:14;98611.78;;;7.17;67.79
69184;BME280;56291;53.960;27.550;2023-03-21T09:17:41;98611.50;;;7.20;67.64
69184;BME280;56291;53.960;27.550;2023-03-21T09:20:10;98615.53;;;7.24;68.36
69184;BME280;56291;53.960;27.550;2023-03-21T09:22:48;98617.72;;;7.29;68.34
69184;BME280;56291;53.960;27.550;2023-03-21T09:25:15;98626.16;;;7.32;68.25
69184;BME280;56291;53.960;27.550;2023-03-21T09:27:41;98610.88;;;7.37;67.26
69184;BME280;56291;53.960;27.550;2023-03-21T09:30:11;98618.88;;;7.46;67.62
69184;BME280;56291;53.960;27.550;2023-03-21T09:32:38;98624.97;;;7.46;67.14
69184;BME280;56291;53.960;27.550;2023-03-21T09:35:05;98620.72;;;7.55;67.45
69184;BME280;56291;53.960;27.550;2023-03-21T09:37:32;98625.00;;;7.56;67.75
69184;BME280;56291;53.960;27.550;2023-03-21T09:39:58;98623.34;;;7.65;67.59
69184;BME280;56291;53.960;27.550;2023-03-21T09:42:45;98624.88;;;7.67;66.97
69184;BME280;56291;53.960;27.550;2023-03-21T09:45:37;98633.28;;;7.71;66.89
69184;BME280;56291;53.960;27.550;2023-03-21T09:48:15;98634.38;;;7.78;67.50
69184;BME280;56291;53.960;27.550;2023-03-21T09:50:45;98640.19;;;7.82;67.48
69184;BME280;56291;53.960;27.550;2023-03-21T09:53:22;98634.56;;;7.86;66.93
69184;BME280;56291;53.960;27.550;2023-03-21T09:55:52;98633.47;;;7.89;66.93
69184;BME280;56291;53.960;27.550;2023-03-21T09:58:45;98638.00;;;7.87;66.96
69184;BME280;56291;53.960;27.550;2023-03-21T10:01:26;98638.13;;;7.95;66.38
69184;BME280;56291;53.960;27.550;2023-03-21T10:04:04;98637.47;;;7.93;66.82
69184;BME280;56291;53.960;27.550;2023-03-21T10:06:33;98644.75;;;7.99;66.76
69184;BME280;56291;53.960;27.550;2023-03-21T10:09:03;98639.81;;;7.96;66.95
69184;BME280;56291;53.960;27.550;2023-03-21T10:11:48;98634.16;;;7.91;67.35
69184;BME280;56291;53.960;27.550;2023-03-21T10:14:20;98645.63;;;8.00;66.99
69184;BME280;56291;53.960;27.550;2023-03-21T10:16:53;98638.41;;;7.92;67.11
69184;BME280;56291;53.960;27.550;2023-03-21T10:19:22;98635.00;;;8.01;66.94
69184;BME280;56291;53.960;27.550;2023-03-21T10:21:50;98638.59;;;8.10;66.45
69184;BME280;56291;53.960;27.550;2023-03-21T10:24:22;98635.28;;;8.08;66.44
69184;BME280;56291;53.960;27.550;2023-03-21T10:26:50;98645.75;;;8.08;67.03
69184;BME280;56291;53.960;27.550;2023-03-21T10:29:19;98643.81;;;8.10;66.71
69184;BME280;56291;53.960;27.550;2023-03-21T10:31:47;98642.72;;;8.13;67.39
69184;BME280;56291;53.960;27.550;2023-03-21T10:34:19;98651.81;;;8.18;66.85
69184;BME280;56291;53.960;27.550;2023-03-21T10:36:46;98650.72;;;8.21;66.57
69184;BME280;56291;53.960;27.550;2023-03-21T10:41:47;98657.47;;;8.04;67.15
69184;BME280;56291;53.960;27.550;2023-03-21T10:44:16;98654.72;;;8.15;66.27
69184;BME280;56291;53.960;27.550;2023-03-21T10:46:54;98664.63;;;8.12;66.38
69184;BME280;56291;53.960;27.550;2023-03-21T10:49:21;98666.31;;;8.13;66.44
69184;BME280;56291;53.960;27.550;2023-03-21T10:51:52;98657.22;;;8.17;65.96
69184;BME280;56291;53.960;27.550;2023-03-21T10:54:21;98656.09;;;8.19;65.90
69184;BME280;56291;53.960;27.550;2023-03-21T10:56:56;98660.25;;;8.22;66.27
69184;BME280;56291;53.960;27.550;2023-03-21T10:59:25;98663.41;;;8.16;66.46
69184;BME280;56291;53.960;27.550;2023-03-21T11:01:54;98662.03;;;8.12;66.13
69184;BME280;56291;53.960;27.550;2023-03-21T11:04:28;98661.19;;;8.11;66.39
69184;BME280;56291;53.960;27.550;2023-03-21T11:07:02;98657.34;;;8.05;66.01
69184;BME280;56291;53.960;27.550;2023-03-21T11:12:18;98659.25;;;8.03;66.31
69184;BME280;56291;53.960;27.550;2023-03-21T11:14:53;98663.38;;;8.06;67.97
69184;BME280;56291;53.960;27.550;2023-03-21T11:17:22;98653.19;;;8.13;66.29
69184;BME280;56291;53.960;27.550;2023-03-21T11:19:52;98652.38;;;8.12;66.29
69184;BME280;56291;53.960;27.550;2023-03-21T11:22:24;98651.00;;;8.18;66.27
69184;BME280;56291;53.960;27.550;2023-03-21T11:25:03;98641.50;;;8.17;65.99
69184;BME280;56291;53.960;27.550;2023-03-21T11:27:31;98653.06;;;8.14;66.91
69184;BME280;56291;53.960;27.550;2023-03-21T11:29:59;98651.25;;;8.15;66.66
69184;BME280;56291;53.960;27.550;2023-03-21T11:32:31;98664.22;;;8.16;66.41
69184;BME280;56291;53.960;27.550;2023-03-21T11:35:01;98660.38;;;8.20;66.24
69184;BME280;56291;53.960;27.550;2023-03-21T11:37:43;98659.81;;;8.17;66.24
69184;BME280;56291;53.960;27.550;2023-03-21T11:40:23;98662.88;;;8.22;66.23
69184;BME280;56291;53.960;27.550;2023-03-21T11:45:36;98656.25;;;8.18;65.66
69184;BME280;56291;53.960;27.550;2023-03-21T11:48:11;98667.81;;;8.15;65.90
69184;BME280;56291;53.960;27.550;2023-03-21T11:50:46;98656.25;;;8.18;66.54
69184;BME280;56291;53.960;27.550;2023-03-21T11:53:26;98660.34;;;8.11;66.92
69184;BME280;56291;53.960;27.550;2023-03-21T11:56:21;98656.78;;;8.21;66.50
69184;BME280;56291;53.960;27.550;2023-03-21T11:59:16;98651.81;;;8.18;65.83
69184;BME280;56291;53.960;27.550;2023-03-21T12:07:08;98667.25;;;8.12;66.51
69184;BME280;56291;53.960;27.550;2023-03-21T12:09:42;98671.13;;;8.17;66.29
69184;BME280;56291;53.960;27.550;2023-03-21T12:17:35;98660.66;;;8.17;66.27
69184;BME280;56291;53.960;27.550;2023-03-21T12:22:55;98657.88;;;8.29;66.44
69184;BME280;56291;53.960;27.550;2023-03-21T12:28:23;98656.78;;;8.41;65.82
69184;BME280;56291;53.960;27.550;2023-03-21T12:31:20;98656.66;;;8.43;66.06
69184;BME280;56291;53.960;27.550;2023-03-21T12:34:05;98647.72;;;8.45;65.44
69184;BME280;56291;53.960;27.550;2023-03-21T12:39:29;98654.75;;;8.64;65.17
69184;BME280;56291;53.960;27.550;2023-03-21T12:44:45;98664.66;;;8.70;64.96
69184;BME280;56291;53.960;27.550;2023-03-21T12:47:28;98656.66;;;8.82;65.66
69184;BME280;56291;53.960;27.550;2023-03-21T12:52:45;98652.47;;;8.89;64.34
69184;BME280;56291;53.960;27.550;2023-03-21T12:55:25;98649.97;;;8.97;64.16
69184;BME280;56291;53.960;27.550;2023-03-21T12:58:01;98653.31;;;8.99;64.39
69184;BME280;56291;53.960;27.550;2023-03-21T13:00:54;98651.06;;;9.04;64.52
69184;BME280;56291;53.960;27.550;2023-03-21T13:03:23;98644.56;;;9.08;64.53
69184;BME280;56291;53.960;27.550;2023-03-21T13:05:56;98652.28;;;9.10;64.02
69184;BME280;56291;53.960;27.550;2023-03-21T13:08:43;98654.78;;;9.12;63.62
69184;BME280;56291;53.960;27.550;2023-03-21T13:11:18;98654.50;;;9.15;64.01
69184;BME280;56291;53.960;27.550;2023-03-21T13:22:08;98659.06;;;9.13;64.22
69184;BME280;56291;53.960;27.550;2023-03-21T13:24:54;98661.94;;;9.19;64.14
69184;BME280;56291;53.960;27.550;2023-03-21T13:27:36;98669.09;;;9.27;63.84
69184;BME280;56291;53.960;27.550;2023-03-21T13:30:24;98667.03;;;9.21;64.08
69184;BME280;56291;53.960;27.550;2023-03-21T13:33:09;98665.38;;;9.20;63.74
69184;BME280;56291;53.960;27.550;2023-03-21T13:35:39;98673.97;;;9.22;63.60
69184;BME280;56291;53.960;27.550;2023-03-21T13:38:27;98667.47;;;9.16;63.35
69184;BME280;56291;53.960;27.550;2023-03-21T13:41:08;98667.34;;;9.18;63.84
69184;BME280;56291;53.960;27.550;2023-03-21T13:54:00;98667.50;;;9.06;65.12
69184;BME280;56291;53.960;27.550;2023-03-21T13:56:27;98668.03;;;9.10;64.29
69184;BME280;56291;53.960;27.550;2023-03-21T13:59:01;98666.41;;;9.09;63.91
69184;BME280;56291;53.960;27.550;2023-03-21T14:01:31;98664.34;;;9.03;63.94
69184;BME280;56291;53.960;27.550;2023-03-21T14:04:16;98664.06;;;8.96;64.33
69184;BME280;56291;53.960;27.550;2023-03-21T14:07:19;98663.66;;;9.01;64.40
69184;BME280;56291;53.960;27.550;2023-03-21T14:10:07;98667.56;;;8.77;64.02
69184;BME280;56291;53.960;27.550;2023-03-21T14:12:40;98670.03;;;8.88;64.20
69184;BME280;56291;53.960;27.550;2023-03-21T14:15:41;98677.50;;;8.73;64.12
69184;BME280;56291;53.960;27.550;2023-03-21T14:18:12;98671.97;;;8.67;64.28
69184;BME280;56291;53.960;27.550;2023-03-21T14:20:40;98674.06;;;8.73;63.95
69184;BME280;56291;53.960;27.550;2023-03-21T14:23:27;98678.06;;;8.67;64.74
69184;BME280;56291;53.960;27.550;2023-03-21T14:25:53;98676.25;;;8.78;64.20
69184;BME280;56291;53.960;27.550;2023-03-21T14:28:25;98673.25;;;8.72;64.28
69184;BME280;56291;53.960;27.550;2023-03-21T14:30:59;98675.72;;;8.64;63.86
69184;BME280;56291;53.960;27.550;2023-03-21T14:35:59;98676.97;;;8.60;64.54
69184;BME280;56291;53.960;27.550;2023-03-21T14:38:33;98677.50;;;8.64;64.37
69184;BME280;56291;53.960;27.550;2023-03-21T14:41:00;98679.16;;;8.65;64.80
69184;BME280;56291;53.960;27.550;2023-03-21T14:43:27;98679.31;;;8.63;64.51
69184;BME280;56291;53.960;27.550;2023-03-21T14:45:55;98673.50;;;8.60;63.99
69184;BME280;56291;53.960;27.550;2023-03-21T14:48:29;98679.59;;;8.50;64.19
69184;BME280;56291;53.960;27.550;2023-03-21T14:50:59;98682.63;;;8.55;64.44
69184;BME280;56291;53.960;27.550;2023-03-21T14:53:27;98681.78;;;8.55;64.25
69184;BME280;56291;53.960;27.550;2023-03-21T14:58:45;98667.44;;;8.49;64.56
69184;BME280;56291;53.960;27.550;2023-03-21T15:01:30;98669.78;;;8.52;64.46
69184;BME280;56291;53.960;27.550;2023-03-21T15:03:58;98679.47;;;8.52;63.96
69184;BME280;56291;53.960;27.550;2023-03-21T15:06:25;98690.72;;;8.43;64.60
69184;BME280;56291;53.960;27.550;2023-03-21T15:08:59;98685.13;;;8.47;64.53
69184;BME280;56291;53.960;27.550;2023-03-21T15:11:34;98685.50;;;8.52;64.11
69184;BME280;56291;53.960;27.550;2023-03-21T15:14:07;98685.38;;;8.54;64.22
69184;BME280;56291;53.960;27.550;2023-03-21T15:16:34;98687.59;;;8.49;63.95
69184;BME280;56291;53.960;27.550;2023-03-21T15:19:01;98686.91;;;8.47;64.50
69184;BME280;56291;53.960;27.550;2023-03-21T15:21:36;98684.97;;;8.49;64.66
69184;BME280;56291;53.960;27.550;2023-03-21T15:24:13;98687.97;;;8.44;64.67
69184;BME280;56291;53.960;27.550;2023-03-21T15:26:46;98690.06;;;8.40;64.41
69184;BME280;56291;53.960;27.550;2023-03-21T15:29:14;98696.66;;;8.35;64.41
69184;BME280;56291;53.960;27.550;2023-03-21T15:31:45;98701.06;;;8.34;64.54
69184;BME280;56291;53.960;27.550;2023-03-21T15:34:22;98699.44;;;8.33;64.17
69184;BME280;56291;53.960;27.550;2023-03-21T15:36:53;98698.59;;;8.33;63.93
69184;BME280;56291;53.960;27.550;2023-03-21T15:39:20;98701.19;;;8.23;64.92
69184;BME280;56291;53.960;27.550;2023-03-21T15:42:04;98700.81;;;8.28;64.69
69184;BME280;56291;53.960;27.550;2023-03-21T15:44:32;98697.91;;;8.21;64.04
69184;BME280;56291;53.960;27.550;2023-03-21T15:46:59;98702.56;;;8.17;64.24
69184;BME280;56291;53.960;27.550;2023-03-21T15:49:29;98705.59;;;8.13;64.67
69184;BME280;56291;53.960;27.550;2023-03-21T15:52:08;98712.22;;;8.07;63.76
69184;BME280;56291;53.960;27.550;2023-03-21T15:54:56;98710.38;;;7.98;63.57
69184;BME280;56291;53.960;27.550;2023-03-21T15:57:49;98715.75;;;7.96;63.71
69184;BME280;56291;53.960;27.550;2023-03-21T16:00:26;98717.44;;;7.97;63.72
69184;BME280;56291;53.960;27.550;2023-03-21T16:02:58;98723.06;;;7.93;63.81
69184;BME280;56291;53.960;27.550;2023-03-21T16:05:35;98724.97;;;7.91;63.67
69184;BME280;56291;53.960;27.550;2023-03-21T16:08:19;98724.00;;;7.82;64.02
69184;BME280;56291;53.960;27.550;2023-03-21T16:10:46;98727.44;;;7.82;64.81
69184;BME280;56291;53.960;27.550;2023-03-21T16:13:14;98735.94;;;7.65;63.47
69184;BME280;56291;53.960;27.550;2023-03-21T16:15:40;98733.53;;;7.52;63.70
69184;BME280;56291;53.960;27.550;2023-03-21T16:18:07;98743.19;;;7.61;64.60
69184;BME280;56291;53.960;27.550;2023-03-21T16:20:40;98741.31;;;7.63;63.90
69184;BME280;56291;53.960;27.550;2023-03-21T16:23:12;98742.38;;;7.61;64.34
69184;BME280;56291;53.960;27.550;2023-03-21T16:25:43;98735.03;;;7.54;63.71
69184;BME280;56291;53.960;27.550;2023-03-21T16:28:13;98737.56;;;7.56;63.66
69184;BME280;56291;53.960;27.550;2023-03-21T16:30:43;98742.59;;;7.48;63.85
69184;BME280;56291;53.960;27.550;2023-03-21T16:33:11;98738.28;;;7.37;63.37
69184;BME280;56291;53.960;27.550;2023-03-21T16:35:38;98741.28;;;7.32;63.64
69184;BME280;56291;53.960;27.550;2023-03-21T16:38:04;98743.19;;;7.30;63.49
69184;BME280;56291;53.960;27.550;2023-03-21T16:40:38;98747.69;;;7.18;63.32
69184;BME280;56291;53.960;27.550;2023-03-21T16:43:06;98747.28;;;7.23;62.97
69184;BME280;56291;53.960;27.550;2023-03-21T16:45:32;98751.38;;;7.16;63.10
69184;BME280;56291;53.960;27.550;2023-03-21T16:47:59;98754.81;;;7.16;63.67
69184;BME280;56291;53.960;27.550;2023-03-21T16:50:32;98760.56;;;7.10;63.30
69184;BME280;56291;53.960;27.550;2023-03-21T16:52:58;98760.44;;;7.12;64.11
69184;BME280;56291;53.960;27.550;2023-03-21T16:55:25;98755.13;;;7.02;63.02
69184;BME280;56291;53.960;27.550;2023-03-21T16:57:52;98759.28;;;7.05;63.56
69184;BME280;56291;53.960;27.550;2023-03-21T17:00:24;98761.84;;;6.95;63.64
69184;BME280;56291;53.960;27.550;2023-03-21T17:02:53;98763.38;;;6.97;63.25
69184;BME280;56291;53.960;27.550;2023-03-21T17:05:21;98764.59;;;6.93;63.62
69184;BME280;56291;53.960;27.550;2023-03-21T17:07:47;98779.69;;;6.90;63.53
69184;BME280;56291;53.960;27.550;2023-03-21T17:10:23;98779.00;;;6.88;63.35
69184;BME280;56291;53.960;27.550;2023-03-21T17:12:50;98787.00;;;6.75;63.99
69184;BME280;56291;53.960;27.550;2023-03-21T17:15:17;98784.38;;;6.75;64.03
69184;BME280;56291;53.960;27.550;2023-03-21T17:17:44;98790.81;;;6.71;63.87
69184;BME280;56291;53.960;27.550;2023-03-21T17:20:21;98798.75;;;6.69;64.08
69184;BME280;56291;53.960;27.550;2023-03-21T17:22:48;98790.34;;;6.65;64.37
69184;BME280;56291;53.960;27.550;2023-03-21T17:25:15;98794.16;;;6.61;63.76
69184;BME280;56291;53.960;27.550;2023-03-21T17:27:42;98803.56;;;6.64;64.36
69184;BME280;56291;53.960;27.550;2023-03-21T17:30:19;98808.34;;;6.47;63.82
69184;BME280;56291;53.960;27.550;2023-03-21T17:32:47;98808.34;;;6.47;63.52
69184;BME280;56291;53.960;27.550;2023-03-21T17:35:13;98809.53;;;6.43;64.01
69184;BME280;56291;53.960;27.550;2023-03-21T17:37:40;98809.41;;;6.45;63.51
69184;BME280;56291;53.960;27.550;2023-03-21T17:40:09;98814.63;;;6.45;64.05
69184;BME280;56291;53.960;27.550;2023-03-21T17:42:37;98809.66;;;6.42;64.12
69184;BME280;56291;53.960;27.550;2023-03-21T17:45:05;98812.28;;;6.42;64.37
69184;BME280;56291;53.960;27.550;2023-03-21T17:47:32;98811.91;;;6.35;63.30
69184;BME280;56291;53.960;27.550;2023-03-21T17:50:00;98815.97;;;6.28;64.13
69184;BME280;56291;53.960;27.550;2023-03-21T17:52:27;98817.03;;;6.25;63.97
69184;BME280;56291;53.960;27.550;2023-03-21T17:54:53;98825.34;;;6.30;64.44
69184;BME280;56291;53.960;27.550;2023-03-21T17:57:19;98826.78;;;6.23;64.30
69184;BME280;56291;53.960;27.550;2023-03-21T17:59:45;98833.31;;;6.17;64.24
69184;BME280;56291;53.960;27.550;2023-03-21T18:02:11;98822.28;;;6.14;64.25
69184;BME280;56291;53.960;27.550;2023-03-21T18:04:37;98829.16;;;6.15;63.90
69184;BME280;56291;53.960;27.550;2023-03-21T18:07:04;98838.19;;;6.11;64.59
69184;BME280;56291;53.960;27.550;2023-03-21T18:09:31;98831.28;;;6.10;64.74
69184;BME280;56291;53.960;27.550;2023-03-21T18:11:58;98828.94;;;6.07;64.04
69184;BME280;56291;53.960;27.550;2023-03-21T18:14:24;98836.06;;;6.05;64.01
69184;BME280;56291;53.960;27.550;2023-03-21T18:16:50;98837.25;;;6.00;63.59
69184;BME280;56291;53.960;27.550;2023-03-21T18:19:19;98840.06;;;5.97;64.37
69184;BME280;56291;53.960;27.550;2023-03-21T18:21:45;98841.75;;;5.98;64.44
69184;BME280;56291;53.960;27.550;2023-03-21T18:24:11;98849.56;;;5.98;64.35
69184;BME280;56291;53.960;27.550;2023-03-21T18:26:37;98843.03;;;5.93;64.31
69184;BME280;56291;53.960;27.550;2023-03-21T18:29:04;98843.25;;;5.90;64.25
69184;BME280;56291;53.960;27.550;2023-03-21T18:31:30;98840.41;;;5.81;64.65
69184;BME280;56291;53.960;27.550;2023-03-21T18:33:56;98842.88;;;5.83;64.95
69184;BME280;56291;53.960;27.550;2023-03-21T18:36:23;98843.84;;;5.82;64.45
69184;BME280;56291;53.960;27.550;2023-03-21T18:38:50;98844.06;;;5.79;64.73
69184;BME280;56291;53.960;27.550;2023-03-21T18:41:16;98840.75;;;5.77;64.51
69184;BME280;56291;53.960;27.550;2023-03-21T18:43:47;98854.06;;;5.74;64.63
69184;BME280;56291;53.960;27.550;2023-03-21T18:46:14;98854.13;;;5.72;64.73
69184;BME280;56291;53.960;27.550;2023-03-21T18:48:41;98850.00;;;5.70;64.65
69184;BME280;56291;53.960;27.550;2023-03-21T18:51:07;98845.84;;;5.67;64.85
69184;BME280;56291;53.960;27.550;2023-03-21T18:53:35;98847.53;;;5.68;64.47
69184;BME280;56291;53.960;27.550;2023-03-21T18:56:01;98847.72;;;5.65;64.61
69184;BME280;56291;53.960;27.550;2023-03-21T18:58:27;98856.53;;;5.64;64.61
69184;BME280;56291;53.960;27.550;2023-03-21T19:00:55;98855.22;;;5.58;64.63
69184;BME280;56291;53.960;27.550;2023-03-21T19:03:22;98844.78;;;5.58;64.83
69184;BME280;56291;53.960;27.550;2023-03-21T19:05:48;98847.72;;;5.54;64.48
69184;BME280;56291;53.960;27.550;2023-03-21T19:08:14;98841.78;;;5.52;64.81
69184;BME280;56291;53.960;27.550;2023-03-21T19:10:40;98849.00;;;5.48;65.26
69184;BME280;56291;53.960;27.550;2023-03-21T19:13:06;98837.97;;;5.44;64.64
69184;BME280;56291;53.960;27.550;2023-03-21T19:15:33;98842.59;;;5.41;65.40
69184;BME280;56291;53.960;27.550;2023-03-21T19:17:59;98853.03;;;5.41;65.46
69184;BME280;56291;53.960;27.550;2023-03-21T19:20:25;98850.41;;;5.41;65.12
69184;BME280;56291;53.960;27.550;2023-03-21T19:22:53;98842.81;;;5.38;64.55
69184;BME280;56291;53.960;27.550;2023-03-21T19:25:20;98841.03;;;5.38;64.06
69184;BME280;56291;53.960;27.550;2023-03-21T19:27:46;98850.03;;;5.34;64.84